sensor_id;sensor_type;location;lat;lon;timestamp;temperature;humidity
37410;DHT22;23275;48.914;12.566;2022-10-22T00:02:16;11.20;99.90
37410;DHT22;23275;48.914;12.566;2022-10-22T00:04:45;11.20;99.90
37410;DHT22;23275;48.914;12.566;2022-10-22T00:07:11;11.20;99.90
37410;DHT22;23275;48.914;12.566;2022-10-22T00:09:37;11.20;99.90
37410;DHT22;23275;48.914;12.566;2022-10-22T00:12:03;11.20;99.90
37410;DHT22;23275;48.914;12.566;2022-10-22T00:14:28;11.20;99.90
37410;DHT22;23275;48.914;12.566;2022-10-22T00:16:54;11.20;99.90
37410;DHT22;23275;48.914;12.566;2022-10-22T00:19:20;11.20;99.90
37410;DHT22;23275;48.914;12.566;2022-10-22T00:21:46;11.20;99.90
37410;DHT22;23275;48.914;12.566;2022-10-22T00:24:12;11.30;99.90
37410;DHT22;23275;48.914;12.566;2022-10-22T00:26:37;11.30;99.90
37410;DHT22;23275;48.914;12.566;2022-10-22T00:29:04;11.30;99.90
37410;DHT22;23275;48.914;12.566;2022-10-22T00:31:30;11.30;99.90
37410;DHT22;23275;48.914;12.566;2022-10-22T00:33:56;11.20;99.90
37410;DHT22;23275;48.914;12.566;2022-10-22T00:36:21;11.20;99.90
37410;DHT22;23275;48.914;12.566;2022-10-22T00:38:47;11.20;99.90
37410;DHT22;23275;48.914;12.566;2022-10-22T00:41:12;11.30;99.90
37410;DHT22;23275;48.914;12.566;2022-10-22T00:44:03;11.30;99.90
37410;DHT22;23275;48.914;12.566;2022-10-22T00:46:29;11.30;99.90
37410;DHT22;23275;48.914;12.566;2022-10-22T00:48:56;11.30;99.90
37410;DHT22;23275;48.914;12.566;2022-10-22T00:51:25;11.30;99.90
37410;DHT22;23275;48.914;12.566;2022-10-22T00:53:59;11.30;99.90
37410;DHT22;23275;48.914;12.566;2022-10-22T00:56:25;11.20;99.90
37410;DHT22;23275;48.914;12.566;2022-10-22T00:58:56;11.20;99.90
37410;DHT22;23275;48.914;12.566;2022-10-22T01:01:27;11.10;99.90
37410;DHT22;23275;48.914;12.566;2022-10-22T01:03:53;11.10;99.90
37410;DHT22;23275;48.914;12.566;2022-10-22T01:06:31;11.10;99.90
37410;DHT22;23275;48.914;12.566;2022-10-22T01:09:14;11.10;99.90
37410;DHT22;23275;48.914;12.566;2022-10-22T01:17:07;11.10;99.90
37410;DHT22;23275;48.914;12.566;2022-10-22T01:22:42;11.10;99.90
37410;DHT22;23275;48.914;12.566;2022-10-22T01:30:22;11.20;99.90
37410;DHT22;23275;48.914;12.566;2022-10-22T01:32:52;11.20;99.90
37410;DHT22;23275;48.914;12.566;2022-10-22T01:35:24;11.30;99.90
37410;DHT22;23275;48.914;12.566;2022-10-22T01:38:01;11.30;99.90
37410;DHT22;23275;48.914;12.566;2022-10-22T01:40:28;11.30;99.90
37410;DHT22;23275;48.914;12.566;2022-10-22T01:43:03;11.30;99.90
37410;DHT22;23275;48.914;12.566;2022-10-22T01:45:32;11.30;99.90
37410;DHT22;23275;48.914;12.566;2022-10-22T01:48:05;11.30;99.90
37410;DHT22;23275;48.914;12.566;2022-10-22T01:51:16;11.30;99.90
37410;DHT22;23275;48.914;12.566;2022-10-22T01:53:37;11.40;99.90
37410;DHT22;23275;48.914;12.566;2022-10-22T01:58:59;11.30;99.90
37410;DHT22;23275;48.914;12.566;2022-10-22T02:01:34;11.30;99.90
37410;DHT22;23275;48.914;12.566;2022-10-22T02:04:29;11.30;99.90
37410;DHT22;23275;48.914;12.566;2022-10-22T02:07:00;11.30;99.90
37410;DHT22;23275;48.914;12.566;2022-10-22T02:09:28;11.30;99.90
37410;DHT22;23275;48.914;12.566;2022-10-22T02:11:56;11.30;99.90
37410;DHT22;23275;48.914;12.566;2022-10-22T02:14:24;11.30;99.90
37410;DHT22;23275;48.914;12.566;2022-10-22T02:16:51;11.40;99.90
37410;DHT22;23275;48.914;12.566;2022-10-22T02:19:26;11.40;99.90
37410;DHT22;23275;48.914;12.566;2022-10-22T02:21:52;11.40;99.90
37410;DHT22;23275;48.914;12.566;2022-10-22T02:24:19;11.40;99.90
37410;DHT22;23275;48.914;12.566;2022-10-22T02:32:33;11.40;99.90
37410;DHT22;23275;48.914;12.566;2022-10-22T02:35:01;11.40;99.90
37410;DHT22;23275;48.914;12.566;2022-10-22T02:37:27;11.50;99.90
37410;DHT22;23275;48.914;12.566;2022-10-22T02:39:54;11.50;99.90
37410;DHT22;23275;48.914;12.566;2022-10-22T02:42:23;11.50;99.90
37410;DHT22;23275;48.914;12.566;2022-10-22T02:44:49;11.50;99.90
37410;DHT22;23275;48.914;12.566;2022-10-22T02:47:14;11.50;99.90
37410;DHT22;23275;48.914;12.566;2022-10-22T02:49:40;11.50;99.90
37410;DHT22;23275;48.914;12.566;2022-10-22T02:52:05;11.50;99.90
37410;DHT22;23275;48.914;12.566;2022-10-22T02:54:31;11.50;99.90
37410;DHT22;23275;48.914;12.566;2022-10-22T02:56:56;11.50;99.90
37410;DHT22;23275;48.914;12.566;2022-10-22T02:59:22;11.50;99.90
37410;DHT22;23275;48.914;12.566;2022-10-22T03:01:47;11.50;99.90
37410;DHT22;23275;48.914;12.566;2022-10-22T03:04:13;11.50;99.90
37410;DHT22;23275;48.914;12.566;2022-10-22T03:06:38;11.40;99.90
37410;DHT22;23275;48.914;12.566;2022-10-22T03:09:08;11.50;99.90
37410;DHT22;23275;48.914;12.566;2022-10-22T03:11:33;11.50;99.90
37410;DHT22;23275;48.914;12.566;2022-10-22T03:13:59;11.50;99.90
37410;DHT22;23275;48.914;12.566;2022-10-22T03:16:24;11.40;99.90
37410;DHT22;23275;48.914;12.566;2022-10-22T03:18:50;11.40;99.90
37410;DHT22;23275;48.914;12.566;2022-10-22T03:23:56;11.40;99.90
37410;DHT22;23275;48.914;12.566;2022-10-22T03:26:22;11.40;99.90
37410;DHT22;23275;48.914;12.566;2022-10-22T03:28:49;11.40;99.90
37410;DHT22;23275;48.914;12.566;2022-10-22T03:31:14;11.40;99.90
37410;DHT22;23275;48.914;12.566;2022-10-22T03:33:40;11.30;99.90
37410;DHT22;23275;48.914;12.566;2022-10-22T03:36:06;11.20;99.90
37410;DHT22;23275;48.914;12.566;2022-10-22T03:38:35;11.10;99.90
37410;DHT22;23275;48.914;12.566;2022-10-22T03:41:01;11.10;99.90
37410;DHT22;23275;48.914;12.566;2022-10-22T03:43:27;11.00;99.90
37410;DHT22;23275;48.914;12.566;2022-10-22T03:45:52;11.00;99.90
37410;DHT22;23275;48.914;12.566;2022-10-22T03:48:18;11.00;99.90
37410;DHT22;23275;48.914;12.566;2022-10-22T03:50:43;11.00;99.90
37410;DHT22;23275;48.914;12.566;2022-10-22T03:53:09;11.00;99.90
37410;DHT22;23275;48.914;12.566;2022-10-22T03:55:35;11.00;99.90
37410;DHT22;23275;48.914;12.566;2022-10-22T03:58:03;10.90;99.90
37410;DHT22;23275;48.914;12.566;2022-10-22T04:00:28;10.90;99.90
37410;DHT22;23275;48.914;12.566;2022-10-22T04:02:54;11.00;99.90
37410;DHT22;23275;48.914;12.566;2022-10-22T04:05:19;11.00;99.90
37410;DHT22;23275;48.914;12.566;2022-10-22T04:07:45;11.00;99.90
37410;DHT22;23275;48.914;12.566;2022-10-22T04:10:10;11.00;99.90
37410;DHT22;23275;48.914;12.566;2022-10-22T04:12:36;11.00;99.90
37410;DHT22;23275;48.914;12.566;2022-10-22T04:15:01;11.00;99.90
37410;DHT22;23275;48.914;12.566;2022-10-22T04:17:33;11.00;99.90
37410;DHT22;23275;48.914;12.566;2022-10-22T04:19:59;11.00;99.90
37410;DHT22;23275;48.914;12.566;2022-10-22T04:22:24;11.10;99.90
37410;DHT22;23275;48.914;12.566;2022-10-22T04:24:50;11.10;99.90
37410;DHT22;23275;48.914;12.566;2022-10-22T04:27:15;11.10;99.90
37410;DHT22;23275;48.914;12.566;2022-10-22T04:29:41;11.10;99.90
37410;DHT22;23275;48.914;12.566;2022-10-22T04:32:07;11.20;99.90
37410;DHT22;23275;48.914;12.566;2022-10-22T04:34:32;11.20;99.90
37410;DHT22;23275;48.914;12.566;2022-10-22T04:36:58;11.20;99.90
37410;DHT22;23275;48.914;12.566;2022-10-22T04:39:23;11.20;99.90
37410;DHT22;23275;48.914;12.566;2022-10-22T04:41:49;11.30;99.90
37410;DHT22;23275;48.914;12.566;2022-10-22T04:44:14;11.30;99.90
37410;DHT22;23275;48.914;12.566;2022-10-22T04:46:40;11.30;99.90
37410;DHT22;23275;48.914;12.566;2022-10-22T04:49:05;11.30;99.90
37410;DHT22;23275;48.914;12.566;2022-10-22T04:51:31;11.30;99.90
37410;DHT22;23275;48.914;12.566;2022-10-22T04:53:57;11.20;99.90
37410;DHT22;23275;48.914;12.566;2022-10-22T04:56:25;11.20;99.90
37410;DHT22;23275;48.914;12.566;2022-10-22T04:58:56;11.20;99.90
37410;DHT22;23275;48.914;12.566;2022-10-22T05:01:24;11.20;99.90
37410;DHT22;23275;48.914;12.566;2022-10-22T05:03:53;11.20;99.90
37410;DHT22;23275;48.914;12.566;2022-10-22T05:06:20;11.30;99.90
37410;DHT22;23275;48.914;12.566;2022-10-22T05:08:46;11.20;99.90
37410;DHT22;23275;48.914;12.566;2022-10-22T05:11:24;11.30;99.90
37410;DHT22;23275;48.914;12.566;2022-10-22T05:13:50;11.30;99.90
37410;DHT22;23275;48.914;12.566;2022-10-22T05:16:15;11.30;99.90
37410;DHT22;23275;48.914;12.566;2022-10-22T05:18:42;11.20;99.90
37410;DHT22;23275;48.914;12.566;2022-10-22T05:21:14;11.30;99.90
37410;DHT22;23275;48.914;12.566;2022-10-22T05:23:40;11.30;99.90
37410;DHT22;23275;48.914;12.566;2022-10-22T05:26:08;11.20;99.90
37410;DHT22;23275;48.914;12.566;2022-10-22T05:28:34;11.30;99.90
37410;DHT22;23275;48.914;12.566;2022-10-22T05:31:00;11.20;99.90
37410;DHT22;23275;48.914;12.566;2022-10-22T05:33:27;11.20;99.90
37410;DHT22;23275;48.914;12.566;2022-10-22T05:35:53;11.20;99.90
37410;DHT22;23275;48.914;12.566;2022-10-22T05:38:19;11.20;99.90
37410;DHT22;23275;48.914;12.566;2022-10-22T05:40:45;11.20;99.90
37410;DHT22;23275;48.914;12.566;2022-10-22T05:43:10;11.20;99.90
37410;DHT22;23275;48.914;12.566;2022-10-22T05:45:37;11.20;99.90
37410;DHT22;23275;48.914;12.566;2022-10-22T05:48:07;11.20;99.90
37410;DHT22;23275;48.914;12.566;2022-10-22T05:50:36;11.30;99.90
37410;DHT22;23275;48.914;12.566;2022-10-22T05:53:04;11.30;99.90
37410;DHT22;23275;48.914;12.566;2022-10-22T05:55:30;11.30;99.90
37410;DHT22;23275;48.914;12.566;2022-10-22T05:57:55;11.40;99.90
37410;DHT22;23275;48.914;12.566;2022-10-22T06:00:21;11.40;99.90
37410;DHT22;23275;48.914;12.566;2022-10-22T06:02:50;11.40;99.90
37410;DHT22;23275;48.914;12.566;2022-10-22T06:05:15;11.50;99.90
37410;DHT22;23275;48.914;12.566;2022-10-22T06:07:41;11.50;99.90
37410;DHT22;23275;48.914;12.566;2022-10-22T06:10:13;11.50;99.90
37410;DHT22;23275;48.914;12.566;2022-10-22T06:12:39;11.50;99.90
37410;DHT22;23275;48.914;12.566;2022-10-22T06:15:05;11.50;99.90
37410;DHT22;23275;48.914;12.566;2022-10-22T06:17:31;11.50;99.90
37410;DHT22;23275;48.914;12.566;2022-10-22T06:19:56;11.50;99.90
37410;DHT22;23275;48.914;12.566;2022-10-22T06:22:22;11.60;99.90
37410;DHT22;23275;48.914;12.566;2022-10-22T06:24:47;11.60;99.90
37410;DHT22;23275;48.914;12.566;2022-10-22T06:27:13;11.60;99.90
37410;DHT22;23275;48.914;12.566;2022-10-22T06:29:38;11.70;99.90
37410;DHT22;23275;48.914;12.566;2022-10-22T06:32:04;11.70;99.90
37410;DHT22;23275;48.914;12.566;2022-10-22T06:34:30;11.70;99.90
37410;DHT22;23275;48.914;12.566;2022-10-22T06:36:55;11.70;99.90
37410;DHT22;23275;48.914;12.566;2022-10-22T06:39:21;11.70;99.90
37410;DHT22;23275;48.914;12.566;2022-10-22T06:41:46;11.70;99.90
37410;DHT22;23275;48.914;12.566;2022-10-22T06:44:14;11.70;99.90
37410;DHT22;23275;48.914;12.566;2022-10-22T06:46:40;11.70;99.90
37410;DHT22;23275;48.914;12.566;2022-10-22T06:49:05;11.70;99.90
37410;DHT22;23275;48.914;12.566;2022-10-22T06:51:31;11.70;99.90
37410;DHT22;23275;48.914;12.566;2022-10-22T06:53:57;11.80;99.90
37410;DHT22;23275;48.914;12.566;2022-10-22T06:56:26;11.80;99.90
37410;DHT22;23275;48.914;12.566;2022-10-22T06:58:53;11.80;99.90
37410;DHT22;23275;48.914;12.566;2022-10-22T07:01:25;11.80;99.90
37410;DHT22;23275;48.914;12.566;2022-10-22T07:03:52;11.80;99.90
37410;DHT22;23275;48.914;12.566;2022-10-22T07:06:18;11.80;99.90
37410;DHT22;23275;48.914;12.566;2022-10-22T07:08:44;11.90;99.90
37410;DHT22;23275;48.914;12.566;2022-10-22T07:11:18;11.90;99.90
37410;DHT22;23275;48.914;12.566;2022-10-22T07:13:44;11.90;99.90
37410;DHT22;23275;48.914;12.566;2022-10-22T07:16:10;12.00;99.90
37410;DHT22;23275;48.914;12.566;2022-10-22T07:18:37;12.00;99.90
37410;DHT22;23275;48.914;12.566;2022-10-22T07:21:04;12.00;99.90
37410;DHT22;23275;48.914;12.566;2022-10-22T07:23:30;12.00;99.90
37410;DHT22;23275;48.914;12.566;2022-10-22T07:25:56;12.00;99.90
37410;DHT22;23275;48.914;12.566;2022-10-22T07:28:22;12.00;99.90
37410;DHT22;23275;48.914;12.566;2022-10-22T07:30:48;12.10;99.90
37410;DHT22;23275;48.914;12.566;2022-10-22T07:33:13;12.10;99.90
37410;DHT22;23275;48.914;12.566;2022-10-22T07:35:39;12.10;99.90
37410;DHT22;23275;48.914;12.566;2022-10-22T07:38:06;12.10;99.90
37410;DHT22;23275;48.914;12.566;2022-10-22T07:40:33;12.20;99.90
37410;DHT22;23275;48.914;12.566;2022-10-22T07:42:59;12.30;99.90
37410;DHT22;23275;48.914;12.566;2022-10-22T07:45:24;12.30;99.90
37410;DHT22;23275;48.914;12.566;2022-10-22T07:47:50;12.40;99.90
37410;DHT22;23275;48.914;12.566;2022-10-22T07:50:16;12.40;99.90
37410;DHT22;23275;48.914;12.566;2022-10-22T07:52:42;12.50;99.90
37410;DHT22;23275;48.914;12.566;2022-10-22T07:55:08;12.60;99.90
37410;DHT22;23275;48.914;12.566;2022-10-22T07:57:33;12.60;99.90
37410;DHT22;23275;48.914;12.566;2022-10-22T08:00:02;12.70;99.90
37410;DHT22;23275;48.914;12.566;2022-10-22T08:02:28;12.70;99.90
37410;DHT22;23275;48.914;12.566;2022-10-22T08:04:53;12.80;99.90
37410;DHT22;23275;48.914;12.566;2022-10-22T08:07:21;12.80;99.90
37410;DHT22;23275;48.914;12.566;2022-10-22T08:09:47;12.90;99.90
37410;DHT22;23275;48.914;12.566;2022-10-22T08:12:13;13.00;99.90
37410;DHT22;23275;48.914;12.566;2022-10-22T08:14:38;13.10;99.90
37410;DHT22;23275;48.914;12.566;2022-10-22T08:17:04;13.20;99.90
37410;DHT22;23275;48.914;12.566;2022-10-22T08:19:29;13.40;99.90
37410;DHT22;23275;48.914;12.566;2022-10-22T08:21:57;13.60;99.90
37410;DHT22;23275;48.914;12.566;2022-10-22T08:24:22;13.80;99.90
37410;DHT22;23275;48.914;12.566;2022-10-22T08:26:48;13.90;99.90
37410;DHT22;23275;48.914;12.566;2022-10-22T08:29:14;14.00;99.90
37410;DHT22;23275;48.914;12.566;2022-10-22T08:31:39;14.00;99.90
37410;DHT22;23275;48.914;12.566;2022-10-22T08:34:05;14.00;99.90
37410;DHT22;23275;48.914;12.566;2022-10-22T08:36:32;14.00;99.90
37410;DHT22;23275;48.914;12.566;2022-10-22T08:38:58;14.00;99.90
37410;DHT22;23275;48.914;12.566;2022-10-22T08:41:24;14.00;99.90
37410;DHT22;23275;48.914;12.566;2022-10-22T08:44:13;14.00;99.90
37410;DHT22;23275;48.914;12.566;2022-10-22T08:49:32;14.00;99.90
37410;DHT22;23275;48.914;12.566;2022-10-22T08:51:59;14.00;99.90
37410;DHT22;23275;48.914;12.566;2022-10-22T08:54:53;14.10;99.90
37410;DHT22;23275;48.914;12.566;2022-10-22T08:57:36;14.10;99.90
37410;DHT22;23275;48.914;12.566;2022-10-22T09:05:54;14.10;99.90
37410;DHT22;23275;48.914;12.566;2022-10-22T09:08:21;14.10;99.90
37410;DHT22;23275;48.914;12.566;2022-10-22T09:10:50;14.10;99.90
37410;DHT22;23275;48.914;12.566;2022-10-22T09:13:19;14.10;99.90
37410;DHT22;23275;48.914;12.566;2022-10-22T09:15:54;14.20;99.90
37410;DHT22;23275;48.914;12.566;2022-10-22T09:18:38;14.10;99.90
37410;DHT22;23275;48.914;12.566;2022-10-22T09:24:01;14.20;99.90
37410;DHT22;23275;48.914;12.566;2022-10-22T09:26:27;14.20;99.90
37410;DHT22;23275;48.914;12.566;2022-10-22T09:28:53;14.10;99.90
37410;DHT22;23275;48.914;12.566;2022-10-22T09:31:19;14.00;99.90
37410;DHT22;23275;48.914;12.566;2022-10-22T09:33:45;14.10;99.90
37410;DHT22;23275;48.914;12.566;2022-10-22T09:36:19;14.00;99.90
37410;DHT22;23275;48.914;12.566;2022-10-22T09:38:49;14.00;99.90
37410;DHT22;23275;48.914;12.566;2022-10-22T09:41:15;14.10;99.90
37410;DHT22;23275;48.914;12.566;2022-10-22T09:43:40;14.20;99.90
37410;DHT22;23275;48.914;12.566;2022-10-22T09:46:13;14.30;99.90
37410;DHT22;23275;48.914;12.566;2022-10-22T09:48:49;14.30;99.90
37410;DHT22;23275;48.914;12.566;2022-10-22T09:51:22;14.40;99.90
37410;DHT22;23275;48.914;12.566;2022-10-22T09:53:56;14.40;99.90
37410;DHT22;23275;48.914;12.566;2022-10-22T09:56:35;14.40;99.90
37410;DHT22;23275;48.914;12.566;2022-10-22T09:59:01;14.60;99.90
37410;DHT22;23275;48.914;12.566;2022-10-22T10:01:31;14.90;99.90
37410;DHT22;23275;48.914;12.566;2022-10-22T10:04:08;14.90;99.90
37410;DHT22;23275;48.914;12.566;2022-10-22T10:06:36;15.00;99.90
37410;DHT22;23275;48.914;12.566;2022-10-22T10:09:25;15.30;99.90
37410;DHT22;23275;48.914;12.566;2022-10-22T10:12:08;15.40;99.90
37410;DHT22;23275;48.914;12.566;2022-10-22T10:18:00;15.30;99.90
37410;DHT22;23275;48.914;12.566;2022-10-22T10:23:34;16.40;99.90
37410;DHT22;23275;48.914;12.566;2022-10-22T10:26:19;17.60;99.90
37410;DHT22;23275;48.914;12.566;2022-10-22T10:31:33;18.60;99.90
37410;DHT22;23275;48.914;12.566;2022-10-22T10:37:04;17.50;99.90
37410;DHT22;23275;48.914;12.566;2022-10-22T10:45:02;17.10;99.90
37410;DHT22;23275;48.914;12.566;2022-10-22T10:50:22;17.80;99.90
37410;DHT22;23275;48.914;12.566;2022-10-22T10:53:16;18.00;99.90
37410;DHT22;23275;48.914;12.566;2022-10-22T10:59:00;18.30;99.90
37410;DHT22;23275;48.914;12.566;2022-10-22T11:01:37;18.30;99.90
37410;DHT22;23275;48.914;12.566;2022-10-22T11:04:20;18.50;99.90
37410;DHT22;23275;48.914;12.566;2022-10-22T11:06:49;18.20;99.90
37410;DHT22;23275;48.914;12.566;2022-10-22T11:09:24;18.20;99.90
37410;DHT22;23275;48.914;12.566;2022-10-22T11:11:59;18.20;99.90
37410;DHT22;23275;48.914;12.566;2022-10-22T11:14:34;17.80;99.90
37410;DHT22;23275;48.914;12.566;2022-10-22T11:17:13;17.60;99.90
37410;DHT22;23275;48.914;12.566;2022-10-22T11:19:52;17.60;99.90
37410;DHT22;23275;48.914;12.566;2022-10-22T11:22:40;17.50;99.90
37410;DHT22;23275;48.914;12.566;2022-10-22T11:25:19;17.50;99.90
37410;DHT22;23275;48.914;12.566;2022-10-22T11:27:51;17.40;99.90
37410;DHT22;23275;48.914;12.566;2022-10-22T11:30:20;17.30;99.90
37410;DHT22;23275;48.914;12.566;2022-10-22T11:32:48;17.20;99.90
37410;DHT22;23275;48.914;12.566;2022-10-22T11:35:21;17.20;99.90
37410;DHT22;23275;48.914;12.566;2022-10-22T11:37:47;17.00;99.90
37410;DHT22;23275;48.914;12.566;2022-10-22T11:40:19;17.00;99.90
37410;DHT22;23275;48.914;12.566;2022-10-22T12:16:36;17.20;99.90
37410;DHT22;23275;48.914;12.566;2022-10-22T12:19:14;17.10;99.90
37410;DHT22;23275;48.914;12.566;2022-10-22T12:21:43;17.10;99.90
37410;DHT22;23275;48.914;12.566;2022-10-22T12:24:13;17.00;99.90
37410;DHT22;23275;48.914;12.566;2022-10-22T12:26:40;17.00;99.90
37410;DHT22;23275;48.914;12.566;2022-10-22T12:29:10;17.10;99.90
37410;DHT22;23275;48.914;12.566;2022-10-22T12:31:37;17.20;99.90
37410;DHT22;23275;48.914;12.566;2022-10-22T12:34:04;17.20;99.90
37410;DHT22;23275;48.914;12.566;2022-10-22T12:36:33;17.10;99.90
37410;DHT22;23275;48.914;12.566;2022-10-22T12:39:00;17.10;99.90
37410;DHT22;23275;48.914;12.566;2022-10-22T12:41:31;17.10;99.90
37410;DHT22;23275;48.914;12.566;2022-10-22T12:43:57;17.10;99.90
37410;DHT22;23275;48.914;12.566;2022-10-22T12:46:23;17.10;99.90
37410;DHT22;23275;48.914;12.566;2022-10-22T12:48:48;17.10;99.90
37410;DHT22;23275;48.914;12.566;2022-10-22T12:51:17;17.10;99.90
37410;DHT22;23275;48.914;12.566;2022-10-22T12:53:55;17.20;99.90
37410;DHT22;23275;48.914;12.566;2022-10-22T12:56:25;17.20;99.90
37410;DHT22;23275;48.914;12.566;2022-10-22T12:58:59;17.20;99.90
37410;DHT22;23275;48.914;12.566;2022-10-22T13:01:30;17.20;99.90
37410;DHT22;23275;48.914;12.566;2022-10-22T13:12:24;17.10;99.90
37410;DHT22;23275;48.914;12.566;2022-10-22T13:14:49;17.10;99.90
37410;DHT22;23275;48.914;12.566;2022-10-22T13:17:17;17.10;99.90
37410;DHT22;23275;48.914;12.566;2022-10-22T13:19:48;17.20;99.90
37410;DHT22;23275;48.914;12.566;2022-10-22T13:22:25;17.30;99.90
37410;DHT22;23275;48.914;12.566;2022-10-22T13:24:51;17.40;99.90
37410;DHT22;23275;48.914;12.566;2022-10-22T13:27:17;17.60;99.90
37410;DHT22;23275;48.914;12.566;2022-10-22T13:29:43;17.50;99.90
37410;DHT22;23275;48.914;12.566;2022-10-22T13:32:29;17.50;99.90
37410;DHT22;23275;48.914;12.566;2022-10-22T13:34:57;17.60;99.90
37410;DHT22;23275;48.914;12.566;2022-10-22T13:37:24;17.60;99.90
37410;DHT22;23275;48.914;12.566;2022-10-22T13:39:50;17.50;99.90
37410;DHT22;23275;48.914;12.566;2022-10-22T13:42:15;17.50;99.90
37410;DHT22;23275;48.914;12.566;2022-10-22T13:44:41;17.40;99.90
37410;DHT22;23275;48.914;12.566;2022-10-22T13:47:27;17.30;99.90
37410;DHT22;23275;48.914;12.566;2022-10-22T13:49:55;17.20;99.90
37410;DHT22;23275;48.914;12.566;2022-10-22T13:54:58;16.90;99.90
37410;DHT22;23275;48.914;12.566;2022-10-22T13:57:24;16.80;99.90
37410;DHT22;23275;48.914;12.566;2022-10-22T13:59:49;16.70;99.90
37410;DHT22;23275;48.914;12.566;2022-10-22T14:02:15;16.70;99.90
37410;DHT22;23275;48.914;12.566;2022-10-22T14:04:42;16.60;99.90
37410;DHT22;23275;48.914;12.566;2022-10-22T14:07:15;16.60;99.90
37410;DHT22;23275;48.914;12.566;2022-10-22T14:09:41;16.50;99.90
37410;DHT22;23275;48.914;12.566;2022-10-22T14:12:12;16.50;99.90
37410;DHT22;23275;48.914;12.566;2022-10-22T14:14:37;16.50;99.90
37410;DHT22;23275;48.914;12.566;2022-10-22T14:17:04;16.40;99.90
37410;DHT22;23275;48.914;12.566;2022-10-22T14:19:30;16.40;99.90
37410;DHT22;23275;48.914;12.566;2022-10-22T14:21:56;16.40;99.90
37410;DHT22;23275;48.914;12.566;2022-10-22T14:24:22;16.30;99.90
37410;DHT22;23275;48.914;12.566;2022-10-22T14:26:47;16.30;99.90
37410;DHT22;23275;48.914;12.566;2022-10-22T14:29:13;16.30;99.90
37410;DHT22;23275;48.914;12.566;2022-10-22T14:31:39;16.20;99.90
37410;DHT22;23275;48.914;12.566;2022-10-22T14:34:05;16.20;99.90
37410;DHT22;23275;48.914;12.566;2022-10-22T14:36:31;16.20;99.90
37410;DHT22;23275;48.914;12.566;2022-10-22T14:38:56;16.20;99.90
37410;DHT22;23275;48.914;12.566;2022-10-22T14:41:24;16.20;99.90
37410;DHT22;23275;48.914;12.566;2022-10-22T14:43:51;16.10;99.90
37410;DHT22;23275;48.914;12.566;2022-10-22T14:46:17;16.10;99.90
37410;DHT22;23275;48.914;12.566;2022-10-22T14:48:43;16.00;99.90
37410;DHT22;23275;48.914;12.566;2022-10-22T14:51:20;15.90;99.90
37410;DHT22;23275;48.914;12.566;2022-10-22T14:53:47;15.90;99.90
37410;DHT22;23275;48.914;12.566;2022-10-22T14:56:15;15.90;99.90
37410;DHT22;23275;48.914;12.566;2022-10-22T14:58:41;15.80;99.90
37410;DHT22;23275;48.914;12.566;2022-10-22T15:01:07;15.80;99.90
37410;DHT22;23275;48.914;12.566;2022-10-22T15:03:33;15.80;99.90
37410;DHT22;23275;48.914;12.566;2022-10-22T15:05:59;15.80;99.90
37410;DHT22;23275;48.914;12.566;2022-10-22T15:08:24;15.70;99.90
37410;DHT22;23275;48.914;12.566;2022-10-22T15:13:27;15.60;99.90
37410;DHT22;23275;48.914;12.566;2022-10-22T15:15:53;15.60;99.90
37410;DHT22;23275;48.914;12.566;2022-10-22T15:18:19;15.60;99.90
37410;DHT22;23275;48.914;12.566;2022-10-22T15:20:45;15.50;99.90
37410;DHT22;23275;48.914;12.566;2022-10-22T15:23:18;15.50;99.90
37410;DHT22;23275;48.914;12.566;2022-10-22T15:25:43;15.50;99.90
37410;DHT22;23275;48.914;12.566;2022-10-22T15:28:09;15.40;99.90
37410;DHT22;23275;48.914;12.566;2022-10-22T15:30:35;15.30;99.90
37410;DHT22;23275;48.914;12.566;2022-10-22T15:33:00;15.30;99.90
37410;DHT22;23275;48.914;12.566;2022-10-22T15:35:26;15.30;99.90
37410;DHT22;23275;48.914;12.566;2022-10-22T15:37:53;15.20;99.90
37410;DHT22;23275;48.914;12.566;2022-10-22T15:40:18;15.20;99.90
37410;DHT22;23275;48.914;12.566;2022-10-22T15:42:44;15.10;99.90
37410;DHT22;23275;48.914;12.566;2022-10-22T15:45:11;15.10;99.90
37410;DHT22;23275;48.914;12.566;2022-10-22T15:47:36;15.00;99.90
37410;DHT22;23275;48.914;12.566;2022-10-22T15:50:02;14.90;99.90
37410;DHT22;23275;48.914;12.566;2022-10-22T15:52:30;14.90;99.90
37410;DHT22;23275;48.914;12.566;2022-10-22T15:54:55;14.80;99.90
37410;DHT22;23275;48.914;12.566;2022-10-22T15:57:21;14.70;99.90
37410;DHT22;23275;48.914;12.566;2022-10-22T15:59:46;14.70;99.90
37410;DHT22;23275;48.914;12.566;2022-10-22T16:02:14;14.60;99.90
37410;DHT22;23275;48.914;12.566;2022-10-22T16:04:40;14.50;99.90
37410;DHT22;23275;48.914;12.566;2022-10-22T16:07:06;14.50;99.90
37410;DHT22;23275;48.914;12.566;2022-10-22T16:09:31;14.40;99.90
37410;DHT22;23275;48.914;12.566;2022-10-22T16:11:57;14.40;99.90
37410;DHT22;23275;48.914;12.566;2022-10-22T16:14:22;14.30;99.90
37410;DHT22;23275;48.914;12.566;2022-10-22T16:16:50;14.30;99.90
37410;DHT22;23275;48.914;12.566;2022-10-22T16:19:18;14.20;99.90
37410;DHT22;23275;48.914;12.566;2022-10-22T16:21:45;14.10;99.90
37410;DHT22;23275;48.914;12.566;2022-10-22T16:24:11;14.10;99.90
37410;DHT22;23275;48.914;12.566;2022-10-22T16:26:37;14.10;99.90
37410;DHT22;23275;48.914;12.566;2022-10-22T16:29:03;14.00;99.90
37410;DHT22;23275;48.914;12.566;2022-10-22T16:31:29;14.00;99.90
37410;DHT22;23275;48.914;12.566;2022-10-22T16:33:54;13.90;99.90
37410;DHT22;23275;48.914;12.566;2022-10-22T16:36:20;13.80;99.90
37410;DHT22;23275;48.914;12.566;2022-10-22T16:38:47;13.80;99.90
37410;DHT22;23275;48.914;12.566;2022-10-22T16:41:15;13.70;99.90
37410;DHT22;23275;48.914;12.566;2022-10-22T16:43:42;13.70;99.90
37410;DHT22;23275;48.914;12.566;2022-10-22T16:46:09;13.60;99.90
37410;DHT22;23275;48.914;12.566;2022-10-22T16:48:35;13.40;99.90
37410;DHT22;23275;48.914;12.566;2022-10-22T16:51:07;13.30;99.90
37410;DHT22;23275;48.914;12.566;2022-10-22T16:53:33;13.20;99.90
37410;DHT22;23275;48.914;12.566;2022-10-22T16:55:59;13.20;99.90
37410;DHT22;23275;48.914;12.566;2022-10-22T16:58:24;13.10;99.90
37410;DHT22;23275;48.914;12.566;2022-10-22T17:00:50;13.10;99.90
37410;DHT22;23275;48.914;12.566;2022-10-22T17:03:16;13.10;99.90
37410;DHT22;23275;48.914;12.566;2022-10-22T17:05:41;13.10;99.90
37410;DHT22;23275;48.914;12.566;2022-10-22T17:08:07;13.10;99.90
37410;DHT22;23275;48.914;12.566;2022-10-22T17:10:35;13.00;99.90